Impacts METAR Board
IDs:

KHYI - San Marcos Muni, TX, US

Updated at: 0900 UTC 26 May 2019
Potential Impact None Slight Moderate High
Time 25/21Z 25/22Z 25/23Z 26/00Z 26/01Z 26/02Z 26/03Z 26/04Z 26/05Z 26/06Z 26/07Z 26/08Z 26/09Z
Temp91 91 89 86 83 79 77 75 75 75 75 74 75
Dewpt72 71 69 69 70 69 70 71 71 72 72 71 72
Altim29.98 29.98 29.97 29.98 29.97 29.99 30.01 30.01 30.03 30.03 30.03 30.02 30.01
VIS10 10 10 10 10 10 10 10 10 10 10 10 10
CIG-- 44 -- -- -- -- -- -- 15 11 13 13 11
CoverFEWBKNSCTSCTCLRCLRCLRCLRBKNOVCOVCOVCOVC
FltCatVFRVFRVFRVFRVFRVFRVFRVFRMVFRMVFRMVFRMVFRMVFR
WX--------------------------
WDir150160150150140140150150170160160160160
WSpd17 16 18 14 11 11 10 11 8 8 10 7 10
WGst-- 20 21 -- -- -- -- -- -- -- 16 -- --
Raw hourly METARs
KHYI 252056Z 15017KT 10SM FEW042 33/22 A2998 RMK AO2 SLP144 T03280222 58019
KHYI 252156Z 16016G20KT 10SM BKN044 33/22 A2998 RMK AO2 SLP141 T03280217
KHYI 252256Z 15018G21KT 10SM SCT044 32/21 A2997 RMK AO2 SLP137 T03170206
KHYI 252356Z AUTO 15014KT 10SM SCT047 30/21 A2998 RMK AO2 SLP142 T03000206 10333 20300 55003
KHYI 260056Z AUTO 14011KT 10SM CLR 28/21 A2997 RMK AO2 SLP141 T02830211
KHYI 260156Z AUTO 14011KT 10SM CLR 26/21 A2999 RMK AO2 SLP144 T02610206
KHYI 260256Z AUTO 15010KT 10SM CLR 25/21 A3001 RMK AO2 SLP151 T02500211 53010
KHYI 260356Z AUTO 15011KT 10SM CLR 24/22 A3001 RMK AO2 SLP153 T02390217
KHYI 260456Z AUTO 17008KT 10SM BKN015 24/22 A3003 RMK AO2 SLP159 T02390217
KHYI 260556Z AUTO 16008KT 10SM OVC011 24/22 A3003 RMK AO2 SLP159 T02390222 10300 20233 403330233 51007
KHYI 260656Z AUTO 16010G16KT 10SM OVC013 24/22 A3003 RMK AO2 SLP160 T02390222
KHYI 260756Z AUTO 16007KT 10SM OVC013 23/22 A3002 RMK AO2 SLP155 T02330217
KHYI 260856Z AUTO 16010KT 10SM OVC011 24/22 A3001 RMK AO2 SLP154 T02390222 58005